sensor_id;sensor_type;location;lat;lon;timestamp;pressure;altitude;pressure_sealevel;temperature;humidity
10978;BME280;5542;48.272;10.794;2023-11-21T00:01:59;95142.16;;;7.05;90.83
10978;BME280;5542;48.272;10.794;2023-11-21T00:04:26;95131.13;;;7.03;90.88
10978;BME280;5542;48.272;10.794;2023-11-21T00:06:53;95139.41;;;7.00;90.18
10978;BME280;5542;48.272;10.794;2023-11-21T00:09:20;95128.28;;;7.05;90.55
10978;BME280;5542;48.272;10.794;2023-11-21T00:11:46;95130.00;;;7.11;89.69
10978;BME280;5542;48.272;10.794;2023-11-21T00:14:13;95128.16;;;7.00;89.87
10978;BME280;5542;48.272;10.794;2023-11-21T00:16:42;95129.06;;;7.05;90.10
10978;BME280;5542;48.272;10.794;2023-11-21T00:19:09;95125.66;;;7.05;90.63
10978;BME280;5542;48.272;10.794;2023-11-21T00:21:36;95116.91;;;6.99;90.78
10978;BME280;5542;48.272;10.794;2023-11-21T00:24:03;95123.81;;;6.93;91.78
10978;BME280;5542;48.272;10.794;2023-11-21T00:26:29;95129.56;;;6.84;91.95
10978;BME280;5542;48.272;10.794;2023-11-21T00:28:56;95120.03;;;6.89;92.13
10978;BME280;5542;48.272;10.794;2023-11-21T00:31:23;95112.63;;;6.86;92.82
10978;BME280;5542;48.272;10.794;2023-11-21T00:33:51;95119.00;;;6.90;93.22
10978;BME280;5542;48.272;10.794;2023-11-21T00:36:18;95123.22;;;6.91;92.86
10978;BME280;5542;48.272;10.794;2023-11-21T00:38:44;95121.47;;;7.04;92.53
10978;BME280;5542;48.272;10.794;2023-11-21T00:41:10;95124.34;;;7.14;91.57
10978;BME280;5542;48.272;10.794;2023-11-21T00:43:37;95129.16;;;7.17;91.71
10978;BME280;5542;48.272;10.794;2023-11-21T00:46:04;95128.94;;;7.00;92.46
10978;BME280;5542;48.272;10.794;2023-11-21T00:48:32;95130.75;;;7.18;92.13
10978;BME280;5542;48.272;10.794;2023-11-21T00:51:00;95133.34;;;7.18;91.40
10978;BME280;5542;48.272;10.794;2023-11-21T00:53:26;95134.06;;;7.07;92.00
10978;BME280;5542;48.272;10.794;2023-11-21T00:55:53;95144.34;;;7.08;92.22
10978;BME280;5542;48.272;10.794;2023-11-21T00:58:22;95149.69;;;7.13;92.53
10978;BME280;5542;48.272;10.794;2023-11-21T01:00:48;95145.13;;;7.09;92.57
10978;BME280;5542;48.272;10.794;2023-11-21T01:03:15;95144.63;;;7.00;93.50
10978;BME280;5542;48.272;10.794;2023-11-21T01:05:42;95152.25;;;7.02;93.69
10978;BME280;5542;48.272;10.794;2023-11-21T01:08:10;95154.03;;;7.19;92.83
10978;BME280;5542;48.272;10.794;2023-11-21T01:10:36;95150.38;;;7.09;93.06
10978;BME280;5542;48.272;10.794;2023-11-21T01:13:03;95162.94;;;7.00;93.62
10978;BME280;5542;48.272;10.794;2023-11-21T01:15:30;95157.97;;;7.10;93.37
10978;BME280;5542;48.272;10.794;2023-11-21T01:17:57;95152.19;;;6.90;94.49
10978;BME280;5542;48.272;10.794;2023-11-21T01:20:23;95155.19;;;6.93;95.13
10978;BME280;5542;48.272;10.794;2023-11-21T01:22:50;95151.44;;;7.01;94.52
10978;BME280;5542;48.272;10.794;2023-11-21T01:25:18;95148.03;;;7.01;92.96
10978;BME280;5542;48.272;10.794;2023-11-21T01:27:46;95150.28;;;6.97;93.76
10978;BME280;5542;48.272;10.794;2023-11-21T01:30:13;95146.69;;;6.98;93.78
10978;BME280;5542;48.272;10.794;2023-11-21T01:32:39;95133.91;;;7.20;91.85
10978;BME280;5542;48.272;10.794;2023-11-21T01:35:06;95131.69;;;7.05;92.76
10978;BME280;5542;48.272;10.794;2023-11-21T01:37:34;95137.19;;;7.15;92.77
10978;BME280;5542;48.272;10.794;2023-11-21T01:40:01;95138.66;;;7.11;92.48
10978;BME280;5542;48.272;10.794;2023-11-21T01:42:31;95138.47;;;6.95;93.84
10978;BME280;5542;48.272;10.794;2023-11-21T01:45:00;95138.66;;;6.93;94.06
10978;BME280;5542;48.272;10.794;2023-11-21T01:47:30;95144.34;;;6.90;94.39
10978;BME280;5542;48.272;10.794;2023-11-21T01:49:57;95141.22;;;7.00;94.26
10978;BME280;5542;48.272;10.794;2023-11-21T01:52:24;95145.72;;;6.92;94.67
10978;BME280;5542;48.272;10.794;2023-11-21T01:54:51;95135.84;;;6.95;95.05
10978;BME280;5542;48.272;10.794;2023-11-21T01:57:19;95134.25;;;6.93;94.34
10978;BME280;5542;48.272;10.794;2023-11-21T01:59:48;95133.53;;;6.86;94.79
10978;BME280;5542;48.272;10.794;2023-11-21T02:02:16;95139.13;;;6.90;95.36
10978;BME280;5542;48.272;10.794;2023-11-21T02:04:43;95135.78;;;6.83;95.53
10978;BME280;5542;48.272;10.794;2023-11-21T02:07:09;95139.69;;;6.92;95.21
10978;BME280;5542;48.272;10.794;2023-11-21T02:09:35;95134.69;;;6.90;95.05
10978;BME280;5542;48.272;10.794;2023-11-21T02:12:04;95129.59;;;6.96;94.34
10978;BME280;5542;48.272;10.794;2023-11-21T02:14:30;95127.28;;;6.87;94.66
10978;BME280;5542;48.272;10.794;2023-11-21T02:16:58;95128.66;;;6.90;94.41
10978;BME280;5542;48.272;10.794;2023-11-21T02:19:26;95127.28;;;6.87;94.50
10978;BME280;5542;48.272;10.794;2023-11-21T02:21:56;95119.72;;;6.98;94.06
10978;BME280;5542;48.272;10.794;2023-11-21T02:24:27;95117.84;;;6.86;94.68
10978;BME280;5542;48.272;10.794;2023-11-21T02:26:53;95125.75;;;6.98;93.82
10978;BME280;5542;48.272;10.794;2023-11-21T02:29:20;95116.53;;;6.96;93.96
10978;BME280;5542;48.272;10.794;2023-11-21T02:31:47;95112.69;;;6.98;93.85
10978;BME280;5542;48.272;10.794;2023-11-21T02:34:14;95113.34;;;6.93;94.00
10978;BME280;5542;48.272;10.794;2023-11-21T02:36:41;95109.63;;;7.01;93.72
10978;BME280;5542;48.272;10.794;2023-11-21T02:39:08;95108.81;;;7.01;93.91
10978;BME280;5542;48.272;10.794;2023-11-21T02:41:36;95115.50;;;6.97;94.17
10978;BME280;5542;48.272;10.794;2023-11-21T02:44:04;95118.13;;;6.97;94.00
10978;BME280;5542;48.272;10.794;2023-11-21T02:46:32;95115.38;;;6.91;94.61
10978;BME280;5542;48.272;10.794;2023-11-21T02:48:59;95107.78;;;7.02;94.16
10978;BME280;5542;48.272;10.794;2023-11-21T02:51:26;95110.38;;;6.90;94.19
10978;BME280;5542;48.272;10.794;2023-11-21T02:53:52;95106.50;;;6.92;94.22
10978;BME280;5542;48.272;10.794;2023-11-21T02:56:18;95107.69;;;6.78;94.97
10978;BME280;5542;48.272;10.794;2023-11-21T02:58:46;95106.53;;;6.74;95.54
10978;BME280;5542;48.272;10.794;2023-11-21T03:01:13;95112.06;;;6.84;94.72
10978;BME280;5542;48.272;10.794;2023-11-21T03:03:39;95106.03;;;6.84;95.56
10978;BME280;5542;48.272;10.794;2023-11-21T03:06:07;95103.84;;;6.81;95.22
10978;BME280;5542;48.272;10.794;2023-11-21T03:08:33;95097.06;;;6.91;94.07
10978;BME280;5542;48.272;10.794;2023-11-21T03:11:00;95097.81;;;6.80;94.22
10978;BME280;5542;48.272;10.794;2023-11-21T03:13:28;95098.09;;;6.72;94.48
10978;BME280;5542;48.272;10.794;2023-11-21T03:15:56;95097.69;;;6.57;96.00
10978;BME280;5542;48.272;10.794;2023-11-21T03:18:22;95099.19;;;6.64;95.68
10978;BME280;5542;48.272;10.794;2023-11-21T03:20:48;95104.38;;;6.71;95.33
10978;BME280;5542;48.272;10.794;2023-11-21T03:23:15;95093.31;;;6.69;94.88
10978;BME280;5542;48.272;10.794;2023-11-21T03:25:42;95102.97;;;6.68;94.70
10978;BME280;5542;48.272;10.794;2023-11-21T03:28:08;95104.06;;;6.61;95.34
10978;BME280;5542;48.272;10.794;2023-11-21T03:30:35;95102.25;;;6.80;94.34
10978;BME280;5542;48.272;10.794;2023-11-21T03:33:03;95101.16;;;6.69;94.89
10978;BME280;5542;48.272;10.794;2023-11-21T03:35:29;95105.53;;;6.75;94.56
10978;BME280;5542;48.272;10.794;2023-11-21T03:37:56;95112.44;;;6.70;94.63
10978;BME280;5542;48.272;10.794;2023-11-21T03:40:22;95103.44;;;6.65;94.22
10978;BME280;5542;48.272;10.794;2023-11-21T03:42:48;95107.13;;;6.76;94.64
10978;BME280;5542;48.272;10.794;2023-11-21T03:45:16;95105.09;;;6.60;95.06
10978;BME280;5542;48.272;10.794;2023-11-21T03:47:42;95109.53;;;6.41;96.53
10978;BME280;5542;48.272;10.794;2023-11-21T03:50:10;95113.00;;;6.53;96.40
10978;BME280;5542;48.272;10.794;2023-11-21T03:52:37;95119.81;;;6.54;95.83
10978;BME280;5542;48.272;10.794;2023-11-21T03:55:04;95116.69;;;6.64;95.26
10978;BME280;5542;48.272;10.794;2023-11-21T03:57:30;95115.03;;;6.51;95.55
10978;BME280;5542;48.272;10.794;2023-11-21T03:59:57;95114.94;;;6.58;94.67
10978;BME280;5542;48.272;10.794;2023-11-21T04:02:23;95116.19;;;6.55;95.62
10978;BME280;5542;48.272;10.794;2023-11-21T04:04:52;95122.41;;;6.54;95.65
10978;BME280;5542;48.272;10.794;2023-11-21T04:07:20;95116.25;;;6.67;94.71
10978;BME280;5542;48.272;10.794;2023-11-21T04:09:47;95120.84;;;6.53;95.33
10978;BME280;5542;48.272;10.794;2023-11-21T04:12:13;95130.03;;;6.37;95.45
10978;BME280;5542;48.272;10.794;2023-11-21T04:14:40;95120.69;;;6.48;95.16
10978;BME280;5542;48.272;10.794;2023-11-21T04:17:06;95116.25;;;6.49;94.98
10978;BME280;5542;48.272;10.794;2023-11-21T04:22:12;95117.66;;;6.70;94.42
10978;BME280;5542;48.272;10.794;2023-11-21T04:24:40;95111.53;;;6.57;93.84
10978;BME280;5542;48.272;10.794;2023-11-21T04:27:07;95119.50;;;6.44;94.23
10978;BME280;5542;48.272;10.794;2023-11-21T04:29:33;95119.59;;;6.37;94.88
10978;BME280;5542;48.272;10.794;2023-11-21T04:32:00;95119.00;;;6.35;95.22
10978;BME280;5542;48.272;10.794;2023-11-21T04:34:28;95119.50;;;6.44;94.74
10978;BME280;5542;48.272;10.794;2023-11-21T04:36:56;95121.03;;;6.33;95.29
10978;BME280;5542;48.272;10.794;2023-11-21T04:39:22;95128.22;;;6.38;94.17
10978;BME280;5542;48.272;10.794;2023-11-21T04:41:50;95125.63;;;6.38;94.35
10978;BME280;5542;48.272;10.794;2023-11-21T04:44:16;95126.97;;;6.40;94.37
10978;BME280;5542;48.272;10.794;2023-11-21T04:46:43;95129.53;;;6.47;94.46
10978;BME280;5542;48.272;10.794;2023-11-21T04:49:10;95120.47;;;6.50;94.19
10978;BME280;5542;48.272;10.794;2023-11-21T04:51:37;95120.03;;;6.53;93.42
10978;BME280;5542;48.272;10.794;2023-11-21T04:54:04;95118.16;;;6.41;93.71
10978;BME280;5542;48.272;10.794;2023-11-21T04:56:31;95121.41;;;6.37;93.90
10978;BME280;5542;48.272;10.794;2023-11-21T04:58:58;95128.06;;;6.33;94.02
10978;BME280;5542;48.272;10.794;2023-11-21T05:01:25;95121.41;;;6.37;93.80
10978;BME280;5542;48.272;10.794;2023-11-21T05:03:52;95123.34;;;6.23;94.69
10978;BME280;5542;48.272;10.794;2023-11-21T05:06:18;95124.03;;;6.37;93.40
10978;BME280;5542;48.272;10.794;2023-11-21T05:08:45;95125.25;;;6.34;93.75
10978;BME280;5542;48.272;10.794;2023-11-21T05:11:11;95128.16;;;6.45;93.56
10978;BME280;5542;48.272;10.794;2023-11-21T05:13:38;95127.13;;;6.46;92.97
10978;BME280;5542;48.272;10.794;2023-11-21T05:16:06;95123.94;;;6.44;92.79
10978;BME280;5542;48.272;10.794;2023-11-21T05:18:33;95128.38;;;6.43;93.13
10978;BME280;5542;48.272;10.794;2023-11-21T05:20:59;95129.16;;;6.44;93.27
10978;BME280;5542;48.272;10.794;2023-11-21T05:23:26;95131.56;;;6.45;92.36
10978;BME280;5542;48.272;10.794;2023-11-21T05:25:52;95131.91;;;6.30;93.22
10978;BME280;5542;48.272;10.794;2023-11-21T05:28:19;95134.81;;;6.40;92.87
10978;BME280;5542;48.272;10.794;2023-11-21T05:30:45;95142.66;;;6.40;92.34
10978;BME280;5542;48.272;10.794;2023-11-21T05:33:13;95136.56;;;6.28;93.77
10978;BME280;5542;48.272;10.794;2023-11-21T05:35:40;95138.94;;;6.30;93.30
10978;BME280;5542;48.272;10.794;2023-11-21T05:38:07;95138.56;;;6.26;93.62
10978;BME280;5542;48.272;10.794;2023-11-21T05:40:33;95140.22;;;6.21;94.42
10978;BME280;5542;48.272;10.794;2023-11-21T05:43:00;95141.56;;;6.30;93.60
10978;BME280;5542;48.272;10.794;2023-11-21T05:45:26;95146.22;;;6.28;94.17
10978;BME280;5542;48.272;10.794;2023-11-21T05:47:54;95141.13;;;6.33;93.97
10978;BME280;5542;48.272;10.794;2023-11-21T05:50:22;95145.41;;;6.27;93.00
10978;BME280;5542;48.272;10.794;2023-11-21T05:52:48;95144.41;;;6.28;92.60
10978;BME280;5542;48.272;10.794;2023-11-21T05:55:15;95143.38;;;6.29;92.64
10978;BME280;5542;48.272;10.794;2023-11-21T05:57:43;95147.81;;;6.29;92.47
10978;BME280;5542;48.272;10.794;2023-11-21T06:00:11;95149.09;;;6.20;92.64
10978;BME280;5542;48.272;10.794;2023-11-21T06:02:43;95139.28;;;6.15;92.41
10978;BME280;5542;48.272;10.794;2023-11-21T06:05:10;95146.22;;;6.28;92.06
10978;BME280;5542;48.272;10.794;2023-11-21T06:07:38;95145.41;;;6.27;91.95
10978;BME280;5542;48.272;10.794;2023-11-21T06:10:07;95148.19;;;6.32;91.86
10978;BME280;5542;48.272;10.794;2023-11-21T06:12:34;95154.56;;;6.36;91.77
10978;BME280;5542;48.272;10.794;2023-11-21T06:15:02;95159.47;;;6.26;91.63
10978;BME280;5542;48.272;10.794;2023-11-21T06:17:30;95163.34;;;6.42;90.39
10978;BME280;5542;48.272;10.794;2023-11-21T06:19:57;95164.00;;;6.37;91.13
10978;BME280;5542;48.272;10.794;2023-11-21T06:22:23;95166.50;;;6.26;91.80
10978;BME280;5542;48.272;10.794;2023-11-21T06:24:51;95162.69;;;6.28;91.83
10978;BME280;5542;48.272;10.794;2023-11-21T06:27:17;95168.13;;;6.27;91.58
10978;BME280;5542;48.272;10.794;2023-11-21T06:29:44;95180.19;;;6.21;91.74
10978;BME280;5542;48.272;10.794;2023-11-21T06:32:11;95177.97;;;6.25;91.40
10978;BME280;5542;48.272;10.794;2023-11-21T06:34:37;95181.38;;;6.25;91.86
10978;BME280;5542;48.272;10.794;2023-11-21T06:37:04;95179.50;;;6.32;92.23
10978;BME280;5542;48.272;10.794;2023-11-21T06:39:31;95184.28;;;6.35;91.06
10978;BME280;5542;48.272;10.794;2023-11-21T06:41:59;95182.31;;;6.31;90.76
10978;BME280;5542;48.272;10.794;2023-11-21T06:44:26;95188.47;;;6.18;91.81
10978;BME280;5542;48.272;10.794;2023-11-21T06:46:52;95189.38;;;6.30;91.26
10978;BME280;5542;48.272;10.794;2023-11-21T06:49:19;95183.72;;;6.33;90.87
10978;BME280;5542;48.272;10.794;2023-11-21T06:51:45;95186.25;;;6.40;91.43
10978;BME280;5542;48.272;10.794;2023-11-21T06:54:12;95185.38;;;6.28;91.81
10978;BME280;5542;48.272;10.794;2023-11-21T06:56:39;95185.97;;;6.30;91.18
10978;BME280;5542;48.272;10.794;2023-11-21T06:59:07;95189.81;;;6.27;91.31
10978;BME280;5542;48.272;10.794;2023-11-21T07:01:34;95183.59;;;6.22;91.42
10978;BME280;5542;48.272;10.794;2023-11-21T07:04:04;95191.19;;;6.30;91.66
10978;BME280;5542;48.272;10.794;2023-11-21T07:06:31;95197.19;;;6.30;90.95
10978;BME280;5542;48.272;10.794;2023-11-21T07:08:57;95201.69;;;6.23;92.43
10978;BME280;5542;48.272;10.794;2023-11-21T07:11:24;95207.53;;;6.44;91.22
10978;BME280;5542;48.272;10.794;2023-11-21T07:13:51;95207.22;;;6.33;91.32
10978;BME280;5542;48.272;10.794;2023-11-21T07:16:19;95207.22;;;6.33;91.76
10978;BME280;5542;48.272;10.794;2023-11-21T07:18:46;95204.63;;;6.33;92.39
10978;BME280;5542;48.272;10.794;2023-11-21T07:21:14;95210.00;;;6.38;92.09
10978;BME280;5542;48.272;10.794;2023-11-21T07:23:41;95215.28;;;6.32;92.01
10978;BME280;5542;48.272;10.794;2023-11-21T07:26:07;95211.81;;;6.38;91.84
10978;BME280;5542;48.272;10.794;2023-11-21T07:28:36;95222.03;;;6.39;91.67
10978;BME280;5542;48.272;10.794;2023-11-21T07:31:02;95223.53;;;6.54;91.03
10978;BME280;5542;48.272;10.794;2023-11-21T07:33:30;95226.84;;;6.43;91.84
10978;BME280;5542;48.272;10.794;2023-11-21T07:35:56;95222.81;;;6.40;92.43
10978;BME280;5542;48.272;10.794;2023-11-21T07:38:23;95234.59;;;6.49;92.04
10978;BME280;5542;48.272;10.794;2023-11-21T07:40:49;95239.25;;;6.47;92.48
10978;BME280;5542;48.272;10.794;2023-11-21T07:43:16;95238.00;;;6.50;91.40
10978;BME280;5542;48.272;10.794;2023-11-21T07:45:44;95235.31;;;6.38;92.45
10978;BME280;5542;48.272;10.794;2023-11-21T07:48:11;95242.28;;;6.44;92.50
10978;BME280;5542;48.272;10.794;2023-11-21T07:50:39;95244.00;;;6.57;92.00
10978;BME280;5542;48.272;10.794;2023-11-21T07:53:05;95243.59;;;6.60;91.75
10978;BME280;5542;48.272;10.794;2023-11-21T07:55:32;95244.78;;;6.57;92.27
10978;BME280;5542;48.272;10.794;2023-11-21T07:57:58;95242.97;;;6.58;92.19
10978;BME280;5542;48.272;10.794;2023-11-21T08:00:24;95240.53;;;6.63;91.59
10978;BME280;5542;48.272;10.794;2023-11-21T08:02:55;95252.56;;;6.64;91.29
10978;BME280;5542;48.272;10.794;2023-11-21T08:05:21;95249.31;;;6.68;91.23
10978;BME280;5542;48.272;10.794;2023-11-21T08:07:49;95247.50;;;6.69;91.17
10978;BME280;5542;48.272;10.794;2023-11-21T08:10:16;95249.31;;;6.68;91.82
10978;BME280;5542;48.272;10.794;2023-11-21T08:12:42;95250.06;;;6.76;91.47
10978;BME280;5542;48.272;10.794;2023-11-21T08:15:09;95249.03;;;6.77;91.59
10978;BME280;5542;48.272;10.794;2023-11-21T08:17:36;95249.25;;;6.75;91.43
10978;BME280;5542;48.272;10.794;2023-11-21T08:20:03;95253.41;;;6.83;91.23
10978;BME280;5542;48.272;10.794;2023-11-21T08:22:29;95245.34;;;6.84;90.90
10978;BME280;5542;48.272;10.794;2023-11-21T08:24:58;95254.16;;;6.90;91.37
10978;BME280;5542;48.272;10.794;2023-11-21T08:27:25;95250.44;;;6.98;90.64
10978;BME280;5542;48.272;10.794;2023-11-21T08:29:51;95250.81;;;7.01;90.81
10978;BME280;5542;48.272;10.794;2023-11-21T08:32:18;95252.47;;;6.96;91.02
10978;BME280;5542;48.272;10.794;2023-11-21T08:34:44;95249.22;;;7.00;90.88
10978;BME280;5542;48.272;10.794;2023-11-21T08:37:14;95247.69;;;7.11;90.44
10978;BME280;5542;48.272;10.794;2023-11-21T08:39:41;95250.88;;;6.95;90.88
10978;BME280;5542;48.272;10.794;2023-11-21T08:42:09;95261.75;;;6.91;91.67
10978;BME280;5542;48.272;10.794;2023-11-21T08:44:35;95254.81;;;7.04;91.70
10978;BME280;5542;48.272;10.794;2023-11-21T08:47:04;95259.31;;;7.15;91.14
10978;BME280;5542;48.272;10.794;2023-11-21T08:49:30;95258.44;;;7.21;90.44
10978;BME280;5542;48.272;10.794;2023-11-21T08:51:56;95261.94;;;7.15;91.71
10978;BME280;5542;48.272;10.794;2023-11-21T08:54:24;95263.59;;;7.28;91.63
10978;BME280;5542;48.272;10.794;2023-11-21T08:56:51;95269.78;;;7.33;90.93
10978;BME280;5542;48.272;10.794;2023-11-21T08:59:18;95265.09;;;7.54;89.50
10978;BME280;5542;48.272;10.794;2023-11-21T09:01:45;95263.00;;;7.44;90.40
10978;BME280;5542;48.272;10.794;2023-11-21T09:04:12;95263.22;;;7.42;90.94
10978;BME280;5542;48.272;10.794;2023-11-21T09:06:39;95265.84;;;7.42;90.96
10978;BME280;5542;48.272;10.794;2023-11-21T09:09:06;95265.03;;;7.60;89.06
10978;BME280;5542;48.272;10.794;2023-11-21T09:11:33;95261.25;;;7.56;89.06
10978;BME280;5542;48.272;10.794;2023-11-21T09:14:01;95268.94;;;7.69;88.92
10978;BME280;5542;48.272;10.794;2023-11-21T09:16:29;95275.19;;;7.68;89.01
10978;BME280;5542;48.272;10.794;2023-11-21T09:18:57;95269.59;;;7.83;87.78
10978;BME280;5542;48.272;10.794;2023-11-21T09:21:23;95272.94;;;7.72;88.65
10978;BME280;5542;48.272;10.794;2023-11-21T09:23:51;95273.66;;;7.79;87.94
10978;BME280;5542;48.272;10.794;2023-11-21T09:26:19;95280.97;;;7.89;88.32
10978;BME280;5542;48.272;10.794;2023-11-21T09:28:45;95279.28;;;7.94;88.58
10978;BME280;5542;48.272;10.794;2023-11-21T09:31:13;95279.28;;;7.94;86.75
10978;BME280;5542;48.272;10.794;2023-11-21T09:33:42;95285.44;;;7.70;88.82
10978;BME280;5542;48.272;10.794;2023-11-21T09:36:11;95276.72;;;7.76;89.20
10978;BME280;5542;48.272;10.794;2023-11-21T09:38:38;95276.56;;;7.71;88.99
10978;BME280;5542;48.272;10.794;2023-11-21T09:41:13;95275.13;;;7.57;89.13
10978;BME280;5542;48.272;10.794;2023-11-21T09:43:43;95283.03;;;7.68;89.02
10978;BME280;5542;48.272;10.794;2023-11-21T09:46:12;95282.47;;;7.66;88.88
10978;BME280;5542;48.272;10.794;2023-11-21T09:48:48;95279.75;;;7.73;89.45
10978;BME280;5542;48.272;10.794;2023-11-21T09:51:19;95277.78;;;7.87;89.34
10978;BME280;5542;48.272;10.794;2023-11-21T09:53:49;95280.06;;;7.65;89.37
10978;BME280;5542;48.272;10.794;2023-11-21T09:56:17;95277.38;;;7.72;89.25
10978;BME280;5542;48.272;10.794;2023-11-21T09:58:50;95278.00;;;7.85;88.76
10978;BME280;5542;48.272;10.794;2023-11-21T10:01:18;95277.34;;;7.90;88.84
10978;BME280;5542;48.272;10.794;2023-11-21T10:03:47;95279.28;;;7.94;88.30
10978;BME280;5542;48.272;10.794;2023-11-21T10:06:14;95273.75;;;8.03;87.52
10978;BME280;5542;48.272;10.794;2023-11-21T10:08:42;95277.97;;;8.04;86.95
10978;BME280;5542;48.272;10.794;2023-11-21T10:11:10;95286.25;;;8.01;87.63
10978;BME280;5542;48.272;10.794;2023-11-21T10:13:39;95289.78;;;8.06;87.06
10978;BME280;5542;48.272;10.794;2023-11-21T10:16:07;95292.06;;;8.03;86.72
10978;BME280;5542;48.272;10.794;2023-11-21T10:18:37;95294.41;;;7.92;86.97
10978;BME280;5542;48.272;10.794;2023-11-21T10:21:07;95298.91;;;8.04;86.98
10978;BME280;5542;48.272;10.794;2023-11-21T10:23:34;95301.47;;;8.22;86.27
10978;BME280;5542;48.272;10.794;2023-11-21T10:26:01;95296.00;;;8.24;86.33
10978;BME280;5542;48.272;10.794;2023-11-21T10:28:27;95295.34;;;8.28;86.48
10978;BME280;5542;48.272;10.794;2023-11-21T10:30:54;95293.78;;;8.39;85.47
10978;BME280;5542;48.272;10.794;2023-11-21T10:33:27;95288.16;;;8.35;85.35
10978;BME280;5542;48.272;10.794;2023-11-21T10:35:53;95287.31;;;8.41;84.61
10978;BME280;5542;48.272;10.794;2023-11-21T10:38:21;95280.69;;;8.39;85.68
10978;BME280;5542;48.272;10.794;2023-11-21T10:40:49;95273.63;;;8.39;86.28
10978;BME280;5542;48.272;10.794;2023-11-21T10:43:17;95278.22;;;8.56;86.68
10978;BME280;5542;48.272;10.794;2023-11-21T10:45:44;95278.34;;;8.61;85.72
10978;BME280;5542;48.272;10.794;2023-11-21T10:48:13;95279.59;;;8.70;84.94
10978;BME280;5542;48.272;10.794;2023-11-21T10:50:42;95282.91;;;8.77;84.86
10978;BME280;5542;48.272;10.794;2023-11-21T10:53:09;95282.81;;;8.84;84.97
10978;BME280;5542;48.272;10.794;2023-11-21T10:55:38;95284.63;;;8.83;85.42
10978;BME280;5542;48.272;10.794;2023-11-21T10:58:05;95277.66;;;9.01;82.96
10978;BME280;5542;48.272;10.794;2023-11-21T11:00:33;95269.44;;;9.09;82.08
10978;BME280;5542;48.272;10.794;2023-11-21T11:03:00;95279.94;;;9.09;81.07
10978;BME280;5542;48.272;10.794;2023-11-21T11:05:27;95284.06;;;9.05;82.45
10978;BME280;5542;48.272;10.794;2023-11-21T11:07:58;95278.34;;;9.08;83.02
10978;BME280;5542;48.272;10.794;2023-11-21T11:10:26;95279.59;;;9.17;83.32
10978;BME280;5542;48.272;10.794;2023-11-21T11:12:56;95277.88;;;9.22;83.49
10978;BME280;5542;48.272;10.794;2023-11-21T11:15:24;95269.97;;;9.34;83.60
10978;BME280;5542;48.272;10.794;2023-11-21T11:17:50;95280.38;;;9.41;81.13
10978;BME280;5542;48.272;10.794;2023-11-21T11:20:23;95269.97;;;9.34;80.75
10978;BME280;5542;48.272;10.794;2023-11-21T11:22:57;95273.19;;;9.36;81.41
10978;BME280;5542;48.272;10.794;2023-11-21T11:25:35;95279.81;;;9.27;79.08
10978;BME280;5542;48.272;10.794;2023-11-21T11:28:08;95276.50;;;9.20;79.46
10978;BME280;5542;48.272;10.794;2023-11-21T11:30:43;95279.03;;;9.15;80.33
10978;BME280;5542;48.272;10.794;2023-11-21T11:33:22;95273.31;;;9.18;80.82
10978;BME280;5542;48.272;10.794;2023-11-21T11:35:56;95272.41;;;9.24;80.76
10978;BME280;5542;48.272;10.794;2023-11-21T11:38:27;95279.34;;;9.30;80.38
10978;BME280;5542;48.272;10.794;2023-11-21T11:40:53;95275.81;;;9.36;80.32
10978;BME280;5542;48.272;10.794;2023-11-21T11:43:26;95276.13;;;9.40;80.63
10978;BME280;5542;48.272;10.794;2023-11-21T11:45:55;95277.06;;;9.45;79.46
10978;BME280;5542;48.272;10.794;2023-11-21T11:48:24;95278.53;;;9.41;79.58
10978;BME280;5542;48.272;10.794;2023-11-21T11:51:04;95273.63;;;9.45;79.72
10978;BME280;5542;48.272;10.794;2023-11-21T11:53:35;95280.31;;;9.53;79.56
10978;BME280;5542;48.272;10.794;2023-11-21T11:56:36;95278.97;;;9.50;79.16
10978;BME280;5542;48.272;10.794;2023-11-21T11:59:05;95273.38;;;9.46;79.62
10978;BME280;5542;48.272;10.794;2023-11-21T12:01:34;95279.69;;;9.45;80.28
10978;BME280;5542;48.272;10.794;2023-11-21T12:04:23;95274.53;;;9.51;80.47
10978;BME280;5542;48.272;10.794;2023-11-21T12:06:51;95277.16;;;9.51;80.57
10978;BME280;5542;48.272;10.794;2023-11-21T12:09:18;95272.94;;;9.49;80.81
10978;BME280;5542;48.272;10.794;2023-11-21T12:11:46;95277.16;;;9.51;80.52
10978;BME280;5542;48.272;10.794;2023-11-21T12:14:15;95275.44;;;9.44;81.09
10978;BME280;5542;48.272;10.794;2023-11-21T12:16:43;95279.09;;;9.43;81.26
10978;BME280;5542;48.272;10.794;2023-11-21T12:19:09;95271.56;;;9.47;81.14
10978;BME280;5542;48.272;10.794;2023-11-21T12:21:36;95273.50;;;9.40;81.46
10978;BME280;5542;48.272;10.794;2023-11-21T12:24:04;95275.31;;;9.39;81.53
10978;BME280;5542;48.272;10.794;2023-11-21T12:26:33;95271.22;;;9.55;80.25
10978;BME280;5542;48.272;10.794;2023-11-21T12:29:00;95275.78;;;9.48;79.83
10978;BME280;5542;48.272;10.794;2023-11-21T12:31:30;95285.72;;;9.34;81.00
10978;BME280;5542;48.272;10.794;2023-11-21T12:33:57;95280.97;;;9.31;81.84
10978;BME280;5542;48.272;10.794;2023-11-21T12:36:24;95277.53;;;9.31;81.81
10978;BME280;5542;48.272;10.794;2023-11-21T12:38:50;95283.34;;;9.33;82.17
10978;BME280;5542;48.272;10.794;2023-11-21T12:41:17;95273.19;;;9.36;82.16
10978;BME280;5542;48.272;10.794;2023-11-21T12:43:44;95274.88;;;9.42;81.57
10978;BME280;5542;48.272;10.794;2023-11-21T12:46:13;95284.94;;;9.45;81.23
10978;BME280;5542;48.272;10.794;2023-11-21T12:48:42;95285.34;;;9.54;80.24
10978;BME280;5542;48.272;10.794;2023-11-21T12:51:09;95294.72;;;9.50;78.82
10978;BME280;5542;48.272;10.794;2023-11-21T12:53:37;95284.09;;;9.57;78.13
10978;BME280;5542;48.272;10.794;2023-11-21T12:56:06;95290.72;;;9.47;79.01
10978;BME280;5542;48.272;10.794;2023-11-21T12:58:34;95288.88;;;9.60;78.74
10978;BME280;5542;48.272;10.794;2023-11-21T13:01:01;95295.84;;;9.54;78.75
10978;BME280;5542;48.272;10.794;2023-11-21T13:03:29;95294.94;;;9.48;79.02
10978;BME280;5542;48.272;10.794;2023-11-21T13:05:57;95293.34;;;9.47;79.11
10978;BME280;5542;48.272;10.794;2023-11-21T13:08:25;95289.59;;;9.55;78.40
10978;BME280;5542;48.272;10.794;2023-11-21T13:10:54;95297.81;;;9.47;78.69
10978;BME280;5542;48.272;10.794;2023-11-21T13:13:22;95299.53;;;9.30;79.34
10978;BME280;5542;48.272;10.794;2023-11-21T13:15:50;95302.28;;;9.23;80.19